createdAt,value
2022-08-09T00:00:00.417Z,18.72
2022-08-09T00:00:57.269Z,18.70
2022-08-09T00:01:57.968Z,18.70
2022-08-09T00:02:58.297Z,18.70
2022-08-09T00:04:06.346Z,18.70
2022-08-09T00:05:03.437Z,18.69
2022-08-09T00:06:19.655Z,18.69
2022-08-09T00:06:59.346Z,18.68
2022-08-09T00:08:00.063Z,18.67
2022-08-09T00:09:00.502Z,18.67
2022-08-09T00:10:01.722Z,18.66
2022-08-09T00:11:05.813Z,18.66
2022-08-09T00:12:03.473Z,18.66
2022-08-09T00:13:01.659Z,18.65
2022-08-09T00:14:01.788Z,18.65
2022-08-09T00:15:06.967Z,18.64
2022-08-09T00:16:02.399Z,18.63
2022-08-09T00:17:02.037Z,18.62
2022-08-09T00:18:04.686Z,18.61
2022-08-09T00:19:02.779Z,18.60
2022-08-09T00:20:03.584Z,18.59
2022-08-09T00:21:03.670Z,18.58
2022-08-09T00:22:04.293Z,18.57
2022-08-09T00:23:08.353Z,18.56
2022-08-09T00:24:04.871Z,18.55
2022-08-09T00:25:08.421Z,18.54
2022-08-09T00:26:05.531Z,18.52
2022-08-09T00:27:06.296Z,18.51
2022-08-09T00:28:06.419Z,18.49
2022-08-09T00:29:12.174Z,18.47
2022-08-09T00:30:23.566Z,18.46
2022-08-09T00:30:25.983Z,18.27
2022-08-09T00:31:58.111Z,18.24
2022-08-09T00:32:25.679Z,18.24
2022-08-09T00:33:16.853Z,18.23
2022-08-09T00:34:19.336Z,18.23
2022-08-09T00:35:17.806Z,18.23
2022-08-09T00:36:19.132Z,18.23
2022-08-09T00:37:18.334Z,18.23
2022-08-09T00:38:21.441Z,18.22
2022-08-09T00:40:13.967Z,18.22
2022-08-09T00:40:19.856Z,18.21
2022-08-09T00:44:16.790Z,18.20
2022-08-09T00:44:26.076Z,18.19
2022-08-09T00:44:27.112Z,18.17
2022-08-09T00:44:27.351Z,18.15
2022-08-09T00:45:21.716Z,18.13
2022-08-09T00:46:55.226Z,18.11
2022-08-09T00:47:24.947Z,18.08
2022-08-09T00:48:22.979Z,18.05
2022-08-09T00:49:23.295Z,18.03
2022-08-09T00:50:25.215Z,18.02
2022-08-09T00:51:24.559Z,18.00
2022-08-09T00:52:30.225Z,17.98
2022-08-09T00:53:25.289Z,17.97
2022-08-09T00:54:35.159Z,17.95
2022-08-09T00:56:04.120Z,17.94
2022-08-09T00:56:26.192Z,17.93
2022-08-09T00:57:34.874Z,17.92
2022-08-09T00:58:27.809Z,17.91
2022-08-09T00:59:41.253Z,17.72
2022-08-09T00:59:41.649Z,17.90
2022-08-09T01:00:35.852Z,17.71
2022-08-09T01:01:44.669Z,17.71
2022-08-09T01:02:36.822Z,17.71
2022-08-09T01:03:40.673Z,17.71
2022-08-09T01:04:37.835Z,17.70
2022-08-09T01:05:50.672Z,17.69
2022-08-09T01:06:54.215Z,17.69
2022-08-09T01:08:00.639Z,17.69
2022-08-09T01:08:38.870Z,17.68
2022-08-09T01:09:39.149Z,17.68
2022-08-09T01:10:39.193Z,17.67
2022-08-09T01:11:40.150Z,17.66
2022-08-09T01:12:40.292Z,17.65
2022-08-09T01:13:41.934Z,17.64
2022-08-09T01:14:40.364Z,17.64
2022-08-09T01:15:52.256Z,17.63
2022-08-09T01:16:40.869Z,17.62
2022-08-09T01:17:40.944Z,17.61
2022-08-09T01:18:41.006Z,17.60
2022-08-09T01:19:51.640Z,17.58
2022-08-09T01:20:41.393Z,17.57
2022-08-09T01:21:45.027Z,17.55
2022-08-09T01:22:41.643Z,17.53
2022-08-09T01:24:03.632Z,17.51
2022-08-09T01:24:44.049Z,17.50
2022-08-09T01:25:49.024Z,17.48
2022-08-09T01:26:43.778Z,17.46
2022-08-09T01:27:44.678Z,17.44
2022-08-09T01:28:45.465Z,17.42
2022-08-09T01:29:55.730Z,17.40
2022-08-09T01:30:52.119Z,17.38
2022-08-09T01:30:54.853Z,17.05
2022-08-09T01:32:29.924Z,17.02
2022-08-09T01:32:55.807Z,17.02
2022-08-09T01:33:55.732Z,17.02
2022-08-09T01:34:57.638Z,17.02
2022-08-09T01:35:59.197Z,17.01
2022-08-09T01:36:58.223Z,17.00
2022-08-09T01:38:07.935Z,16.99
2022-08-09T01:38:59.381Z,16.97
2022-08-09T01:39:59.514Z,16.97
2022-08-09T01:41:02.941Z,16.96
2022-08-09T01:42:04.086Z,16.95
2022-08-09T01:43:01.598Z,16.94
2022-08-09T01:44:01.818Z,16.93
2022-08-09T01:45:03.508Z,16.92
2022-08-09T01:46:02.741Z,16.91
2022-08-09T01:47:03.327Z,16.90
2022-08-09T01:48:05.892Z,16.90
2022-08-09T01:49:09.521Z,16.89
2022-08-09T01:50:06.495Z,16.88
2022-08-09T01:51:04.362Z,16.88
2022-08-09T01:52:07.540Z,16.88
2022-08-09T01:53:19.349Z,16.88
2022-08-09T01:54:06.056Z,16.88
2022-08-09T01:55:08.045Z,16.87
2022-08-09T01:56:07.239Z,16.87
2022-08-09T01:57:08.086Z,16.86
2022-08-09T01:58:07.917Z,16.85
2022-08-09T01:59:08.752Z,16.85
2022-08-09T01:59:18.568Z,16.77
2022-08-09T02:00:35.939Z,16.75
2022-08-09T02:01:19.618Z,16.75
2022-08-09T02:02:19.811Z,16.74
2022-08-09T02:03:19.953Z,16.74
2022-08-09T02:04:21.524Z,16.73
2022-08-09T02:05:20.830Z,16.73
2022-08-09T02:06:21.745Z,16.73
2022-08-09T02:08:39.063Z,16.72
2022-08-09T02:08:39.296Z,16.72
2022-08-09T02:09:23.094Z,16.72
2022-08-09T02:10:29.687Z,16.71
2022-08-09T02:11:24.084Z,16.71
2022-08-09T02:12:25.515Z,16.71
2022-08-09T02:13:26.226Z,16.70
2022-08-09T02:14:26.677Z,16.69
2022-08-09T02:15:26.977Z,16.68
2022-08-09T02:16:33.857Z,16.67
2022-08-09T02:17:59.499Z,16.66
2022-08-09T02:18:27.663Z,16.65
2022-08-09T02:19:34.933Z,16.64
2022-08-09T02:20:32.851Z,16.63
2022-08-09T02:21:29.289Z,16.62
2022-08-09T02:22:31.717Z,16.62
2022-08-09T02:23:31.868Z,16.61
2022-08-09T02:24:30.784Z,16.60
2022-08-09T02:25:31.466Z,16.59
2022-08-09T02:26:32.319Z,16.57
2022-08-09T02:27:58.227Z,16.56
2022-08-09T02:28:32.780Z,16.55
2022-08-09T02:28:41.368Z,16.42
2022-08-09T02:29:41.646Z,16.40
2022-08-09T02:30:41.744Z,16.40
2022-08-09T02:31:42.258Z,16.40
2022-08-09T02:32:43.068Z,16.40
2022-08-09T02:34:06.789Z,16.39
2022-08-09T02:34:51.740Z,16.38
2022-08-09T02:36:02.072Z,16.37
2022-08-09T02:36:44.549Z,16.37
2022-08-09T02:37:46.437Z,16.36
2022-08-09T02:38:47.814Z,16.35
2022-08-09T02:39:49.876Z,16.34
2022-08-09T02:40:46.469Z,16.33
2022-08-09T02:41:46.679Z,16.32
2022-08-09T02:42:51.248Z,16.30
2022-08-09T02:43:54.859Z,16.29
2022-08-09T02:44:47.844Z,16.27
2022-08-09T02:45:49.197Z,16.25
2022-08-09T02:46:52.305Z,16.23
2022-08-09T02:47:58.853Z,16.22
2022-08-09T02:48:51.093Z,16.21
2022-08-09T02:50:01.255Z,16.19
2022-08-09T02:50:53.083Z,16.18
2022-08-09T02:51:50.216Z,16.17
2022-08-09T02:52:55.303Z,16.17
2022-08-09T02:53:59.697Z,16.16
2022-08-09T02:54:54.819Z,16.15
2022-08-09T02:55:58.403Z,16.15
2022-08-09T02:56:53.995Z,16.14
2022-08-09T02:57:02.112Z,16.02
2022-08-09T02:58:32.815Z,16.00
2022-08-09T02:59:03.376Z,16.00
2022-08-09T03:00:24.779Z,15.99
2022-08-09T03:01:04.396Z,15.99
2022-08-09T03:02:06.810Z,15.99
2022-08-09T03:03:04.455Z,15.98
2022-08-09T03:04:18.425Z,15.98
2022-08-09T03:05:05.735Z,15.98
2022-08-09T03:06:05.929Z,15.98
2022-08-09T03:07:12.399Z,15.97
2022-08-09T03:08:06.662Z,15.97
2022-08-09T03:09:06.963Z,15.96
2022-08-09T03:10:08.054Z,15.95
2022-08-09T03:11:10.226Z,15.94
2022-08-09T03:12:11.323Z,15.93
2022-08-09T03:13:08.607Z,15.91
2022-08-09T03:14:08.449Z,15.90
2022-08-09T03:15:09.160Z,15.88
2022-08-09T03:16:09.922Z,15.86
2022-08-09T03:17:20.495Z,15.85
2022-08-09T03:18:10.837Z,15.85
2022-08-09T03:19:14.348Z,15.84
2022-08-09T03:20:11.859Z,15.83
2022-08-09T03:21:12.146Z,15.82
2022-08-09T03:22:19.759Z,15.81
2022-08-09T03:23:15.139Z,15.80
2022-08-09T03:24:14.095Z,15.79
2022-08-09T03:25:26.487Z,15.78
2022-08-09T03:26:15.089Z,15.77
2022-08-09T03:27:17.201Z,15.76
2022-08-09T03:28:16.368Z,15.74
2022-08-09T03:28:28.099Z,15.61
2022-08-09T03:29:28.631Z,15.57
2022-08-09T03:30:33.499Z,15.58
2022-08-09T03:31:29.010Z,15.58
2022-08-09T03:32:29.849Z,15.58
2022-08-09T03:33:53.281Z,15.57
2022-08-09T03:34:30.905Z,15.57
2022-08-09T03:36:11.465Z,15.57
2022-08-09T03:36:34.890Z,15.56
2022-08-09T03:37:54.377Z,15.56
2022-08-09T03:38:33.551Z,15.55
2022-08-09T03:39:37.792Z,15.54
2022-08-09T03:40:34.838Z,15.54
2022-08-09T03:41:48.318Z,15.53
2022-08-09T03:42:35.099Z,15.53
2022-08-09T03:43:36.567Z,15.52
2022-08-09T03:44:35.635Z,15.52
2022-08-09T03:46:04.087Z,15.51
2022-08-09T03:46:36.083Z,15.51
2022-08-09T03:47:41.859Z,15.52
2022-08-09T03:48:36.643Z,15.52
2022-08-09T03:49:36.961Z,15.52
2022-08-09T03:50:37.725Z,15.52
2022-08-09T03:51:43.960Z,15.51
2022-08-09T03:52:38.612Z,15.51
2022-08-09T03:53:38.668Z,15.50
2022-08-09T03:54:39.005Z,15.49
2022-08-09T03:55:42.443Z,15.48
2022-08-09T03:56:41.246Z,15.48
2022-08-09T03:57:44.481Z,15.47
2022-08-09T03:58:41.242Z,15.47
2022-08-09T03:59:53.005Z,15.46
2022-08-09T04:00:42.129Z,15.46
2022-08-09T04:00:50.795Z,15.30
2022-08-09T04:01:51.305Z,15.28
2022-08-09T04:02:52.859Z,15.28
2022-08-09T04:04:01.221Z,15.28
2022-08-09T04:04:52.669Z,15.29
2022-08-09T04:05:52.913Z,15.29
2022-08-09T04:06:53.701Z,15.29
2022-08-09T04:07:57.318Z,15.30
2022-08-09T04:08:55.356Z,15.30
2022-08-09T04:09:56.836Z,15.30
2022-08-09T04:11:01.323Z,15.31
2022-08-09T04:11:56.943Z,15.31
2022-08-09T04:12:57.770Z,15.31
2022-08-09T04:14:53.021Z,15.31
2022-08-09T04:15:02.075Z,15.31
2022-08-09T04:16:20.293Z,15.31
2022-08-09T04:16:58.681Z,15.31
2022-08-09T04:17:59.689Z,15.30
2022-08-09T04:18:59.763Z,15.30
2022-08-09T04:20:02.618Z,15.30
2022-08-09T04:20:59.716Z,15.31
2022-08-09T04:21:59.845Z,15.31
2022-08-09T04:23:02.047Z,15.31
2022-08-09T04:24:00.433Z,15.32
2022-08-09T04:25:03.049Z,15.32
2022-08-09T04:26:01.462Z,15.33
2022-08-09T04:27:01.721Z,15.32
2022-08-09T04:28:03.757Z,15.31
2022-08-09T04:28:14.955Z,15.19
2022-08-09T04:29:15.261Z,15.17
2022-08-09T04:30:15.427Z,15.17
2022-08-09T04:31:17.012Z,15.18
2022-08-09T04:32:16.513Z,15.18
2022-08-09T04:33:16.553Z,15.19
2022-08-09T04:34:19.022Z,15.19
2022-08-09T04:35:17.852Z,15.20
2022-08-09T04:36:19.364Z,15.20
2022-08-09T04:37:18.518Z,15.21
2022-08-09T04:38:18.635Z,15.22
2022-08-09T04:39:19.144Z,15.22
2022-08-09T04:40:35.903Z,15.24
2022-08-09T04:41:23.675Z,15.25
2022-08-09T04:42:21.244Z,15.26
2022-08-09T04:43:20.386Z,15.27
2022-08-09T04:44:20.947Z,15.28
2022-08-09T04:45:22.799Z,15.28
2022-08-09T04:46:56.833Z,15.29
2022-08-09T04:47:22.350Z,15.30
2022-08-09T04:48:33.363Z,15.32
2022-08-09T04:49:40.149Z,15.33
2022-08-09T04:50:24.040Z,15.33
2022-08-09T04:51:24.111Z,15.34
2022-08-09T04:52:26.378Z,15.35
2022-08-09T04:53:24.931Z,15.36
2022-08-09T04:54:25.328Z,15.37
2022-08-09T04:55:27.089Z,15.38
2022-08-09T04:56:26.445Z,15.39
2022-08-09T04:56:35.129Z,15.52
2022-08-09T04:57:59.411Z,15.50
2022-08-09T04:58:36.100Z,15.51
2022-08-09T04:59:37.204Z,15.51
2022-08-09T05:00:37.444Z,15.51
2022-08-09T05:01:38.070Z,15.51
2022-08-09T05:02:38.436Z,15.50
2022-08-09T05:03:42.838Z,15.50
2022-08-09T05:04:38.660Z,15.50
2022-08-09T05:05:52.250Z,15.50
2022-08-09T05:06:38.897Z,15.50
2022-08-09T05:07:39.040Z,15.50
2022-08-09T05:08:39.295Z,15.50
2022-08-09T05:09:48.764Z,15.50
2022-08-09T05:10:39.777Z,15.50
2022-08-09T05:11:40.049Z,15.50
2022-08-09T05:12:40.391Z,15.51
2022-08-09T05:13:41.769Z,15.53
2022-08-09T05:14:41.392Z,15.57
2022-08-09T05:15:43.190Z,15.62
2022-08-09T05:16:43.502Z,15.69
2022-08-09T05:18:38.008Z,15.78
2022-08-09T05:18:58.662Z,15.88
2022-08-09T05:19:45.876Z,16.00
2022-08-09T05:20:42.527Z,16.11
2022-08-09T05:21:46.963Z,16.24
2022-08-09T05:23:53.934Z,16.54
2022-08-09T05:23:55.003Z,16.39
2022-08-09T05:24:47.684Z,16.71
2022-08-09T05:25:46.054Z,16.88
2022-08-09T05:25:56.873Z,19.83
2022-08-09T05:26:56.457Z,19.78
2022-08-09T05:27:57.686Z,19.79
2022-08-09T05:28:58.661Z,19.80
2022-08-09T05:29:57.849Z,19.83
2022-08-09T05:30:58.273Z,19.87
2022-08-09T05:31:59.165Z,19.93
2022-08-09T05:32:59.149Z,20.03
2022-08-09T05:34:00.612Z,20.12
2022-08-09T05:35:00.789Z,20.19
2022-08-09T05:36:00.913Z,20.25
2022-08-09T05:37:01.839Z,20.30
2022-08-09T05:38:00.715Z,20.40
2022-08-09T05:39:01.282Z,20.52
2022-08-09T05:40:01.368Z,20.66
2022-08-09T05:41:01.912Z,20.81
2022-08-09T05:42:04.695Z,20.98
2022-08-09T05:43:02.035Z,21.14
2022-08-09T05:44:02.152Z,21.24
2022-08-09T05:45:02.613Z,21.34
2022-08-09T05:46:03.985Z,21.46
2022-08-09T05:47:05.044Z,21.61
2022-08-09T05:48:04.001Z,21.78
2022-08-09T05:49:04.100Z,21.95
2022-08-09T05:50:24.021Z,22.09
2022-08-09T05:51:29.836Z,22.21
2022-08-09T05:52:05.639Z,22.35
2022-08-09T05:52:14.286Z,24.98
2022-08-09T05:53:32.525Z,24.99
2022-08-09T05:54:15.181Z,25.02
2022-08-09T05:55:21.032Z,25.05
2022-08-09T05:56:16.250Z,25.11
2022-08-09T05:57:17.561Z,25.18
2022-08-09T05:58:18.315Z,25.27
2022-08-09T05:59:17.573Z,25.33
2022-08-09T06:00:19.469Z,25.38
2022-08-09T06:01:19.169Z,25.44
2022-08-09T06:02:19.662Z,25.48
2022-08-09T06:03:20.676Z,25.52
2022-08-09T06:04:23.286Z,25.59
2022-08-09T06:05:30.958Z,25.67
2022-08-09T06:06:21.646Z,25.72
2022-08-09T06:07:22.257Z,25.78
2022-08-09T06:08:24.741Z,25.86
2022-08-09T06:09:53.999Z,25.96
2022-08-09T06:10:24.364Z,26.06
2022-08-09T06:11:41.013Z,26.18
2022-08-09T06:12:26.275Z,26.27
2022-08-09T06:13:25.468Z,26.35
2022-08-09T06:14:25.683Z,26.45
2022-08-09T06:15:27.337Z,26.57
2022-08-09T06:16:26.459Z,26.69
2022-08-09T06:17:26.946Z,26.80
2022-08-09T06:18:27.886Z,26.92
2022-08-09T06:19:29.779Z,27.02
2022-08-09T06:20:29.251Z,27.11
2022-08-09T06:20:38.978Z,28.66
2022-08-09T06:21:50.268Z,28.65
2022-08-09T06:22:39.671Z,28.69
2022-08-09T06:23:55.296Z,28.76
2022-08-09T06:24:39.919Z,28.81
2022-08-09T06:25:40.008Z,28.85
2022-08-09T06:26:40.511Z,28.89
2022-08-09T06:27:42.217Z,28.93
2022-08-09T06:28:43.461Z,28.95
2022-08-09T06:29:58.349Z,28.98
2022-08-09T06:30:43.356Z,29.01
2022-08-09T06:32:08.653Z,29.01
2022-08-09T06:32:53.063Z,29.02
2022-08-09T06:33:53.111Z,29.04
2022-08-09T06:34:44.240Z,29.06
2022-08-09T06:35:57.110Z,29.09
2022-08-09T06:36:45.289Z,29.15
2022-08-09T06:37:52.971Z,29.21
2022-08-09T06:38:49.930Z,29.26
2022-08-09T06:39:58.347Z,29.28
2022-08-09T06:40:47.725Z,29.32
2022-08-09T06:42:08.896Z,29.36
2022-08-09T06:42:48.527Z,29.42
2022-08-09T06:43:49.108Z,29.46
2022-08-09T06:44:51.854Z,29.49
2022-08-09T06:46:07.092Z,29.53
2022-08-09T06:46:50.095Z,29.58
2022-08-09T06:48:00.672Z,29.58
2022-08-09T06:48:50.502Z,29.59
2022-08-09T06:50:13.689Z,29.60
2022-08-09T06:50:13.814Z,30.24
2022-08-09T06:51:00.274Z,30.22
2022-08-09T06:52:00.556Z,30.25
2022-08-09T06:53:01.975Z,30.29
2022-08-09T06:54:02.322Z,30.31
2022-08-09T06:55:01.398Z,30.33
2022-08-09T06:56:01.601Z,30.35
2022-08-09T06:57:01.818Z,30.35
2022-08-09T06:58:04.436Z,30.36
2022-08-09T07:00:50.663Z,30.37
2022-08-09T07:00:53.059Z,30.36
2022-08-09T07:01:03.198Z,30.36
2022-08-09T07:02:04.994Z,30.34
2022-08-09T07:03:06.160Z,30.33
2022-08-09T07:04:04.670Z,30.30
2022-08-09T07:05:05.246Z,30.28
2022-08-09T07:06:05.850Z,30.26
2022-08-09T07:07:07.664Z,30.27
2022-08-09T07:08:06.849Z,30.29
2022-08-09T07:09:07.498Z,30.33
2022-08-09T07:10:22.467Z,30.36
2022-08-09T07:11:08.463Z,30.40
2022-08-09T07:12:17.552Z,30.42
2022-08-09T07:13:27.380Z,30.45
2022-08-09T07:14:09.799Z,30.49
2022-08-09T07:16:35.098Z,30.55
2022-08-09T07:16:41.668Z,30.61
2022-08-09T07:17:12.188Z,30.69
2022-08-09T07:17:22.340Z,31.49
2022-08-09T07:18:23.599Z,31.50
2022-08-09T07:19:23.869Z,31.50
2022-08-09T07:20:23.721Z,31.50
2022-08-09T07:21:24.025Z,31.49
2022-08-09T07:22:34.735Z,31.49
2022-08-09T07:23:25.325Z,31.46
2022-08-09T07:24:32.730Z,31.44
2022-08-09T07:25:26.092Z,31.43
2022-08-09T07:26:26.937Z,31.45
2022-08-09T07:27:34.051Z,31.45
2022-08-09T07:28:28.844Z,31.42
2022-08-09T07:29:37.750Z,31.44
2022-08-09T07:30:32.806Z,31.45
2022-08-09T07:31:29.272Z,31.47
2022-08-09T07:32:31.984Z,31.49
2022-08-09T07:33:30.928Z,31.50
2022-08-09T07:34:31.062Z,31.52
2022-08-09T07:35:32.056Z,31.53
2022-08-09T07:36:32.726Z,31.50
2022-08-09T07:37:44.242Z,31.50
2022-08-09T07:38:33.525Z,31.48
2022-08-09T07:39:41.378Z,31.46
2022-08-09T07:40:54.162Z,31.44
2022-08-09T07:41:38.834Z,31.42
2022-08-09T07:42:35.953Z,31.36
2022-08-09T07:43:41.094Z,31.30
2022-08-09T07:44:51.996Z,31.29
2022-08-09T07:45:40.582Z,31.26
2022-08-09T07:46:38.731Z,31.25
2022-08-09T07:47:49.257Z,31.25
2022-08-09T07:48:01.453Z,31.52
2022-08-09T07:48:52.884Z,31.54
2022-08-09T07:50:04.572Z,31.56
2022-08-09T07:50:53.114Z,31.59
2022-08-09T07:52:04.564Z,31.61
2022-08-09T07:52:50.949Z,31.65
2022-08-09T07:54:07.711Z,31.67
2022-08-09T07:54:51.962Z,31.69
2022-08-09T07:56:03.341Z,31.70
2022-08-09T07:56:53.352Z,31.75
2022-08-09T07:57:54.339Z,31.76
2022-08-09T07:58:54.781Z,31.80
2022-08-09T08:00:02.880Z,31.86
2022-08-09T08:01:06.426Z,31.87
2022-08-09T08:01:56.784Z,31.86
2022-08-09T08:02:57.549Z,31.82
2022-08-09T08:03:57.531Z,31.77
2022-08-09T08:04:58.034Z,31.70
2022-08-09T08:05:58.972Z,31.64
2022-08-09T08:07:00.082Z,31.59
2022-08-09T08:08:43.575Z,31.53
2022-08-09T08:09:07.771Z,31.49
2022-08-09T08:10:07.938Z,31.45
2022-08-09T08:11:03.357Z,31.43
2022-08-09T08:12:11.149Z,31.41
2022-08-09T08:13:03.855Z,31.37
2022-08-09T08:14:04.754Z,31.30
2022-08-09T08:15:03.637Z,31.21
2022-08-09T08:16:03.896Z,31.10
2022-08-09T08:17:08.672Z,31.00
2022-08-09T08:18:05.357Z,30.88
2022-08-09T08:18:16.614Z,28.93
2022-08-09T08:19:17.508Z,28.92
2022-08-09T08:20:17.381Z,28.90
2022-08-09T08:21:18.138Z,28.88
2022-08-09T08:22:18.710Z,28.85
2022-08-09T08:23:19.105Z,28.81
2022-08-09T08:24:19.965Z,28.78
2022-08-09T08:25:20.199Z,28.73
2022-08-09T08:26:41.676Z,28.67
2022-08-09T08:27:21.325Z,28.60
2022-08-09T08:28:31.803Z,28.53
2022-08-09T08:29:28.206Z,28.47
2022-08-09T08:30:22.492Z,28.40
2022-08-09T08:31:24.566Z,28.33
2022-08-09T08:32:29.179Z,28.27
2022-08-09T08:33:24.239Z,28.20
2022-08-09T08:34:25.657Z,28.13
2022-08-09T08:35:23.913Z,28.06
2022-08-09T08:36:29.276Z,27.94
2022-08-09T08:37:25.659Z,27.85
2022-08-09T08:38:25.807Z,27.78
2022-08-09T08:39:26.663Z,27.69
2022-08-09T08:40:29.641Z,27.64
2022-08-09T08:41:50.557Z,27.58
2022-08-09T08:42:32.055Z,27.51
2022-08-09T08:43:29.006Z,27.46
2022-08-09T08:44:29.861Z,27.40
2022-08-09T08:45:36.827Z,27.35
2022-08-09T08:46:33.634Z,27.27
2022-08-09T08:47:32.089Z,27.17
2022-08-09T08:47:42.614Z,25.91
2022-08-09T08:48:51.533Z,25.85
2022-08-09T08:49:48.501Z,25.86
2022-08-09T08:50:42.056Z,25.89
2022-08-09T08:52:01.936Z,25.94
2022-08-09T08:53:00.452Z,26.00
2022-08-09T08:54:03.304Z,26.03
2022-08-09T08:54:43.550Z,26.07
2022-08-09T08:55:44.414Z,26.11
2022-08-09T08:56:45.991Z,26.14
2022-08-09T08:57:57.189Z,26.18
2022-08-09T08:58:46.633Z,26.22
2022-08-09T08:59:47.308Z,26.28
2022-08-09T09:00:46.553Z,26.31
2022-08-09T09:01:52.227Z,26.33
2022-08-09T09:02:52.393Z,26.35
2022-08-09T09:03:50.392Z,26.37
2022-08-09T09:04:53.033Z,26.39
2022-08-09T09:05:59.089Z,26.41
2022-08-09T09:06:50.660Z,26.45
2022-08-09T09:07:51.505Z,26.49
2022-08-09T09:08:02.784Z,26.97
2022-08-09T09:09:06.712Z,26.96
2022-08-09T09:10:04.925Z,26.95
2022-08-09T09:11:04.409Z,26.92
2022-08-09T09:12:08.862Z,26.87
2022-08-09T09:13:09.533Z,26.84
2022-08-09T09:14:05.779Z,26.83
2022-08-09T09:15:06.427Z,26.83
2022-08-09T09:16:07.043Z,26.82
2022-08-09T09:17:06.034Z,26.81
2022-08-09T09:18:06.948Z,26.81
2022-08-09T09:19:39.632Z,26.80
2022-08-09T09:21:53.816Z,26.79
2022-08-09T09:22:54.492Z,26.79
2022-08-09T09:23:58.433Z,26.79
2022-08-09T09:26:01.105Z,26.80
2022-08-09T09:26:02.377Z,26.80
2022-08-09T09:26:57.145Z,26.79
2022-08-09T09:28:05.361Z,26.77
2022-08-09T09:29:03.702Z,26.75
2022-08-09T09:30:11.968Z,26.70
2022-08-09T09:30:58.284Z,26.67
2022-08-09T09:32:04.645Z,26.64
2022-08-09T09:32:58.678Z,26.62
2022-08-09T09:33:59.224Z,26.61
2022-08-09T09:35:00.453Z,26.61
2022-08-09T09:36:01.948Z,26.61
2022-08-09T09:36:59.714Z,26.61
2022-08-09T09:37:08.857Z,26.63
2022-08-09T09:38:08.793Z,26.60
2022-08-09T09:39:09.975Z,26.62
2022-08-09T09:40:10.044Z,26.63
2022-08-09T09:41:10.801Z,26.66
2022-08-09T09:42:10.950Z,26.69
2022-08-09T09:43:11.106Z,26.72
2022-08-09T09:44:15.479Z,26.75
2022-08-09T09:45:14.391Z,26.78
2022-08-09T09:47:12.509Z,26.84
2022-08-09T09:48:12.597Z,26.86
2022-08-09T09:49:12.732Z,26.88
2022-08-09T09:50:17.293Z,26.88
2022-08-09T09:51:18.834Z,26.90
2022-08-09T09:52:35.676Z,26.93
2022-08-09T09:53:14.344Z,26.97
2022-08-09T09:54:42.459Z,27.64
2022-08-09T09:55:43.093Z,27.64
2022-08-09T09:56:53.366Z,27.64
2022-08-09T09:58:01.333Z,27.63
2022-08-09T09:58:45.033Z,27.62
2022-08-09T09:59:45.578Z,27.60
2022-08-09T10:00:53.012Z,27.59
2022-08-09T10:01:47.371Z,27.58
2022-08-09T10:02:46.150Z,27.58
2022-08-09T10:03:56.275Z,27.58
2022-08-09T10:04:47.646Z,27.59
2022-08-09T10:06:03.647Z,27.61
2022-08-09T10:06:51.785Z,27.63
2022-08-09T10:08:11.088Z,27.65
2022-08-09T10:08:57.235Z,27.67
2022-08-09T10:09:55.054Z,27.69
2022-08-09T10:10:50.542Z,27.72
2022-08-09T10:12:07.701Z,27.74
2022-08-09T10:12:52.061Z,27.77
2022-08-09T10:13:51.744Z,27.80
2022-08-09T10:14:52.468Z,27.84
2022-08-09T10:16:54.643Z,27.87
2022-08-09T10:16:57.835Z,27.91
2022-08-09T10:17:56.582Z,27.94
2022-08-09T10:18:54.718Z,27.98
2022-08-09T10:19:57.090Z,28.02
2022-08-09T10:20:57.118Z,28.06
2022-08-09T10:21:57.930Z,28.10
2022-08-09T10:22:07.597Z,28.82
2022-08-09T10:23:08.297Z,28.80
2022-08-09T10:24:08.895Z,28.79
2022-08-09T10:25:12.419Z,28.80
2022-08-09T10:26:10.552Z,28.82
2022-08-09T10:27:17.253Z,28.82
2022-08-09T10:28:11.089Z,28.83
2022-08-09T10:29:35.974Z,28.83
2022-08-09T10:31:31.720Z,28.83
2022-08-09T10:32:38.043Z,28.85
2022-08-09T10:33:44.845Z,28.86
2022-08-09T10:34:32.902Z,28.87
2022-08-09T10:35:14.693Z,28.89
2022-08-09T10:36:15.446Z,28.90
2022-08-09T10:37:15.451Z,28.92
2022-08-09T10:38:54.261Z,28.94
2022-08-09T10:39:19.162Z,28.97
2022-08-09T10:40:34.704Z,28.99
2022-08-09T10:41:17.819Z,29.02
2022-08-09T10:42:53.382Z,29.54
2022-08-09T10:43:59.211Z,29.52
2022-08-09T10:44:53.946Z,29.52
2022-08-09T10:45:59.859Z,29.53
2022-08-09T10:47:00.527Z,29.53
2022-08-09T10:48:26.292Z,29.54
2022-08-09T10:48:56.097Z,29.54
2022-08-09T10:49:57.200Z,29.54
2022-08-09T10:50:56.532Z,29.54
2022-08-09T10:51:57.368Z,29.54
2022-08-09T10:52:58.231Z,29.53
2022-08-09T10:53:58.307Z,29.54
2022-08-09T10:54:59.171Z,29.54
2022-08-09T10:56:00.183Z,29.55
2022-08-09T10:56:59.994Z,29.55
2022-08-09T10:58:00.737Z,29.57
2022-08-09T10:58:16.787Z,29.78
2022-08-09T10:59:12.533Z,29.77
2022-08-09T11:00:12.702Z,29.77
2022-08-09T11:03:13.711Z,29.77
2022-08-09T11:03:15.188Z,29.78
2022-08-09T11:03:51.203Z,29.80
2022-08-09T11:04:27.817Z,29.80
2022-08-09T11:05:25.499Z,29.81
2022-08-09T11:06:17.742Z,29.83
2022-08-09T11:07:19.596Z,29.84
2022-08-09T11:08:30.238Z,29.83
2022-08-09T11:09:20.965Z,29.84
2022-08-09T11:10:19.995Z,29.84
2022-08-09T11:11:20.613Z,29.82
2022-08-09T11:12:20.806Z,29.81
2022-08-09T11:13:51.106Z,29.81
2022-08-09T11:14:28.276Z,29.81
2022-08-09T11:15:24.031Z,29.81
2022-08-09T11:16:04.892Z,29.95
2022-08-09T11:16:40.865Z,29.96
2022-08-09T11:17:41.959Z,29.97
2022-08-09T11:18:41.085Z,29.97
2022-08-09T11:20:11.022Z,29.99
2022-08-09T11:20:43.519Z,30.01
2022-08-09T11:21:43.335Z,30.04
2022-08-09T11:22:44.738Z,30.06
2022-08-09T11:23:47.529Z,30.08
2022-08-09T11:24:45.063Z,30.10
2022-08-09T11:25:48.488Z,30.10
2022-08-09T11:26:47.425Z,30.10
2022-08-09T11:28:04.399Z,30.10
2022-08-09T11:28:56.499Z,30.10
2022-08-09T11:30:05.097Z,30.11
2022-08-09T11:30:48.000Z,30.11
2022-08-09T11:31:49.213Z,30.11
2022-08-09T11:32:48.593Z,30.12
2022-08-09T11:33:50.262Z,30.13
2022-08-09T11:34:02.290Z,20.78
2022-08-09T11:35:03.144Z,30.20
2022-08-09T11:36:04.951Z,30.20
2022-08-09T11:37:07.213Z,30.20
2022-08-09T11:38:04.585Z,30.18
2022-08-09T11:39:04.622Z,30.14
2022-08-09T11:40:04.811Z,30.12
2022-08-09T11:41:05.410Z,30.11
2022-08-09T11:42:07.377Z,30.11
2022-08-09T11:43:07.138Z,30.11
2022-08-09T11:44:07.536Z,30.12
2022-08-09T11:45:08.384Z,30.14
2022-08-09T11:46:09.704Z,30.15
2022-08-09T11:47:10.964Z,30.17
2022-08-09T11:48:17.487Z,30.19
2022-08-09T11:49:10.083Z,30.22
2022-08-09T11:50:56.141Z,30.24
2022-08-09T11:52:56.991Z,30.28
2022-08-09T11:53:04.280Z,30.31
2022-08-09T11:53:57.732Z,30.34
2022-08-09T11:54:13.697Z,30.38
2022-08-09T11:55:12.952Z,30.42
2022-08-09T11:56:14.167Z,30.45
2022-08-09T11:57:13.693Z,30.50
2022-08-09T11:58:14.080Z,30.54
2022-08-09T11:58:32.973Z,31.20
2022-08-09T11:59:30.594Z,31.19
2022-08-09T12:00:29.818Z,31.18
2022-08-09T12:01:37.680Z,31.18
2022-08-09T12:02:36.980Z,31.19
2022-08-09T12:03:55.909Z,31.19
2022-08-09T12:04:37.626Z,31.19
2022-08-09T12:05:37.131Z,31.19
2022-08-09T12:06:34.890Z,31.20
2022-08-09T12:07:34.533Z,31.20
2022-08-09T12:08:32.886Z,31.20
2022-08-09T12:09:33.812Z,31.21
2022-08-09T12:10:39.676Z,31.21
2022-08-09T12:11:44.487Z,31.19
2022-08-09T12:12:35.489Z,31.17
2022-08-09T12:14:06.950Z,31.17
2022-08-09T12:14:59.057Z,31.17
2022-08-09T12:15:49.919Z,31.16
2022-08-09T12:16:39.853Z,31.16
2022-08-09T12:17:44.593Z,31.16
2022-08-09T12:18:39.531Z,31.16
2022-08-09T12:19:40.067Z,31.16
2022-08-09T12:20:39.472Z,31.16
2022-08-09T12:20:51.842Z,31.10
2022-08-09T12:21:52.594Z,31.09
2022-08-09T12:22:55.793Z,31.09
2022-08-09T12:24:02.621Z,31.08
2022-08-09T12:24:54.963Z,31.07
2022-08-09T12:25:56.790Z,31.07
2022-08-09T12:28:59.681Z,31.06
2022-08-09T12:29:14.549Z,31.07
2022-08-09T12:29:14.885Z,31.06
2022-08-09T12:30:01.427Z,31.08
2022-08-09T12:30:58.795Z,31.09
2022-08-09T12:32:03.159Z,31.09
2022-08-09T12:33:00.612Z,31.09
2022-08-09T12:34:01.588Z,31.08
2022-08-09T12:35:02.798Z,31.07
2022-08-09T12:36:02.504Z,31.07
2022-08-09T12:37:21.711Z,31.07
2022-08-09T12:38:03.232Z,31.08
2022-08-09T12:38:29.631Z,30.97
2022-08-09T12:39:20.482Z,30.95
2022-08-09T12:40:19.449Z,30.95